createdAt,value
2019-03-18T00:01:25.551Z,91.40
2019-03-18T00:03:53.537Z,91.90
2019-03-18T00:06:21.659Z,92.00
2019-03-18T00:08:50.038Z,92.10
2019-03-18T00:11:17.950Z,92.30
2019-03-18T00:13:45.825Z,92.60
2019-03-18T00:16:13.830Z,93.00
2019-03-18T00:18:41.728Z,93.00
2019-03-18T00:21:09.694Z,93.40
2019-03-18T00:23:37.776Z,93.40
2019-03-18T00:26:05.817Z,93.40
2019-03-18T00:28:34.093Z,93.60
2019-03-18T00:31:02.069Z,93.40
2019-03-18T00:33:30.159Z,93.50
2019-03-18T00:35:58.194Z,93.60
2019-03-18T00:38:26.385Z,93.50
2019-03-18T00:41:20.324Z,93.60
2019-03-18T00:43:48.288Z,93.30
2019-03-18T00:46:16.243Z,93.10
2019-03-18T00:48:44.455Z,93.10
2019-03-18T00:51:12.382Z,92.90
2019-03-18T00:53:40.412Z,92.90
2019-03-18T00:56:08.440Z,93.10
2019-03-18T00:58:36.789Z,93.10
2019-03-18T01:01:04.741Z,93.30
2019-03-18T01:03:33.473Z,93.40
2019-03-18T01:06:01.515Z,93.40
2019-03-18T01:08:29.786Z,93.30
2019-03-18T01:10:57.885Z,93.40
2019-03-18T01:13:25.915Z,93.40
2019-03-18T01:15:53.887Z,93.50
2019-03-18T01:18:21.828Z,93.30
2019-03-18T01:20:50.678Z,93.30
2019-03-18T01:23:18.749Z,93.40
2019-03-18T01:25:46.817Z,93.30
2019-03-18T01:28:14.792Z,93.30
2019-03-18T01:30:42.861Z,93.50
2019-03-18T01:33:10.823Z,93.50
2019-03-18T01:35:40.127Z,93.60
2019-03-18T01:38:08.163Z,93.80
2019-03-18T01:40:36.231Z,93.80
2019-03-18T01:43:04.199Z,93.70
2019-03-18T01:45:40.782Z,93.90
2019-03-18T01:48:03.008Z,94.10
2019-03-18T01:50:30.972Z,93.70
2019-03-18T01:52:59.212Z,93.60
2019-03-18T01:55:27.133Z,93.30
2019-03-18T01:57:55.086Z,93.30
2019-03-18T02:00:23.381Z,93.20
2019-03-18T02:02:54.230Z,93.00
2019-03-18T02:05:22.161Z,93.00
2019-03-18T02:07:50.190Z,93.00
2019-03-18T02:10:18.291Z,92.80
2019-03-18T02:12:46.860Z,92.70
2019-03-18T02:15:15.008Z,92.50
2019-03-18T02:17:42.983Z,92.10
2019-03-18T02:20:11.417Z,92.00
2019-03-18T02:22:39.430Z,91.90
2019-03-18T02:25:07.520Z,91.70
2019-03-18T02:27:35.451Z,91.70
2019-03-18T02:30:05.063Z,91.50
2019-03-18T02:32:33.260Z,91.80
2019-03-18T02:35:01.245Z,91.80
2019-03-18T02:37:30.375Z,91.80
2019-03-18T02:39:58.738Z,91.80
2019-03-18T02:42:26.687Z,91.70
2019-03-18T02:44:54.606Z,91.70
2019-03-18T02:47:22.586Z,91.80
2019-03-18T02:49:50.508Z,92.00
2019-03-18T02:52:18.837Z,91.90
2019-03-18T02:54:46.807Z,92.00
2019-03-18T02:57:14.706Z,92.00
2019-03-18T02:59:43.609Z,91.70
2019-03-18T03:02:11.564Z,91.80
2019-03-18T03:04:39.528Z,91.50
2019-03-18T03:07:09.277Z,91.60
2019-03-18T03:09:37.369Z,91.80
2019-03-18T03:12:05.545Z,91.90
2019-03-18T03:14:33.711Z,92.00
2019-03-18T03:17:01.663Z,92.00
2019-03-18T03:19:29.985Z,92.10
2019-03-18T03:21:57.941Z,92.30
2019-03-18T03:24:25.832Z,92.00
2019-03-18T03:26:53.746Z,92.00
2019-03-18T03:29:22.662Z,91.90
2019-03-18T03:31:50.597Z,91.80
2019-03-18T03:34:18.494Z,91.90
2019-03-18T03:36:46.380Z,91.80
2019-03-18T03:39:14.307Z,91.80
2019-03-18T03:41:42.313Z,91.30
2019-03-18T03:44:10.283Z,91.20
2019-03-18T03:46:43.741Z,91.30
2019-03-18T03:49:07.982Z,91.30
2019-03-18T03:51:35.999Z,91.30
2019-03-18T03:54:03.919Z,91.30
2019-03-18T03:56:31.964Z,91.30
2019-03-18T03:59:00.012Z,91.40
2019-03-18T04:01:29.713Z,91.40
2019-03-18T04:03:58.786Z,91.10
2019-03-18T04:06:26.660Z,90.90
2019-03-18T04:08:54.663Z,90.70
2019-03-18T04:11:23.397Z,90.70
2019-03-18T04:13:51.288Z,90.60
2019-03-18T04:16:19.164Z,90.80
2019-03-18T04:18:47.870Z,90.50
2019-03-18T04:21:15.769Z,90.30
2019-03-18T04:23:43.655Z,89.80
2019-03-18T04:26:11.838Z,90.00
2019-03-18T04:28:39.723Z,89.60
2019-03-18T04:31:07.682Z,89.90
2019-03-18T04:33:38.940Z,89.90
2019-03-18T04:36:05.478Z,89.30
2019-03-18T04:38:33.552Z,89.10
2019-03-18T04:41:01.412Z,89.40
2019-03-18T04:43:29.290Z,88.70
2019-03-18T04:45:57.131Z,89.30
2019-03-18T04:48:25.044Z,89.60
2019-03-18T04:50:52.928Z,90.00
2019-03-18T04:53:20.824Z,89.40
2019-03-18T04:55:48.745Z,89.50
2019-03-18T04:58:16.662Z,89.10
2019-03-18T05:00:44.545Z,89.50
2019-03-18T05:03:12.429Z,89.00
2019-03-18T05:05:40.315Z,89.30
2019-03-18T05:08:08.205Z,89.80
2019-03-18T05:10:36.237Z,89.20
2019-03-18T05:13:04.151Z,88.50
2019-03-18T05:15:32.059Z,87.60
2019-03-18T05:17:59.993Z,87.80
2019-03-18T05:20:27.960Z,88.10
2019-03-18T05:22:55.911Z,88.20
2019-03-18T05:25:23.790Z,87.90
2019-03-18T05:27:51.704Z,88.40
2019-03-18T05:30:19.608Z,88.50
2019-03-18T05:32:47.566Z,88.40
2019-03-18T05:35:15.421Z,88.70
2019-03-18T05:37:43.413Z,88.60
2019-03-18T05:40:12.969Z,88.10
2019-03-18T05:42:40.848Z,88.40
2019-03-18T05:45:08.999Z,87.60
2019-03-18T05:47:39.458Z,88.10
2019-03-18T05:50:07.172Z,88.60
2019-03-18T05:52:35.198Z,88.40
2019-03-18T05:55:03.779Z,88.70
2019-03-18T05:57:31.806Z,88.70
2019-03-18T05:59:59.881Z,87.30
2019-03-18T06:02:27.966Z,87.60
2019-03-18T06:04:56.119Z,87.20
2019-03-18T06:07:24.059Z,87.40
2019-03-18T06:09:52.090Z,86.90
2019-03-18T06:12:21.604Z,86.30
2019-03-18T06:14:49.500Z,86.10
2019-03-18T06:17:21.869Z,86.70
2019-03-18T06:19:49.819Z,87.10
2019-03-18T06:22:17.773Z,86.60
2019-03-18T06:24:45.823Z,87.20
2019-03-18T06:27:13.896Z,86.50
2019-03-18T06:29:43.080Z,86.30
2019-03-18T06:32:11.639Z,85.50
2019-03-18T06:34:39.630Z,84.40
2019-03-18T06:37:07.632Z,83.30
2019-03-18T06:39:35.600Z,82.90
2019-03-18T06:42:03.617Z,83.30
2019-03-18T06:44:31.684Z,82.10
2019-03-18T06:47:03.071Z,81.80
2019-03-18T06:49:31.129Z,81.20
2019-03-18T06:51:59.406Z,80.30
2019-03-18T06:54:27.728Z,81.40
2019-03-18T06:56:55.837Z,79.90
2019-03-18T06:59:24.218Z,80.70
2019-03-18T07:01:52.498Z,79.70
2019-03-18T07:04:20.644Z,79.00
2019-03-18T07:06:48.699Z,79.60
2019-03-18T07:09:16.736Z,80.10
2019-03-18T07:11:44.807Z,80.60
2019-03-18T07:14:12.996Z,80.60
2019-03-18T07:16:41.501Z,79.70
2019-03-18T07:19:09.564Z,79.70
2019-03-18T07:21:37.640Z,79.40
2019-03-18T07:24:05.994Z,77.20
2019-03-18T07:26:34.856Z,77.20
2019-03-18T07:29:03.481Z,77.30
2019-03-18T07:31:31.571Z,77.40
2019-03-18T07:34:00.075Z,76.30
2019-03-18T07:36:28.388Z,76.80
2019-03-18T07:38:56.956Z,77.00
2019-03-18T07:41:24.934Z,76.80
2019-03-18T07:43:53.133Z,77.00
2019-03-18T07:46:21.095Z,78.30
2019-03-18T07:48:49.591Z,77.20
2019-03-18T07:51:17.613Z,76.50
2019-03-18T07:53:45.722Z,76.30
2019-03-18T07:56:16.392Z,76.20
2019-03-18T07:58:45.192Z,74.90
2019-03-18T08:01:15.453Z,75.90
2019-03-18T08:03:43.626Z,75.10
2019-03-18T08:06:11.596Z,74.50
2019-03-18T08:08:39.686Z,74.20
2019-03-18T08:11:08.349Z,75.00
2019-03-18T08:13:36.443Z,74.10
2019-03-18T08:16:04.507Z,74.40
2019-03-18T08:18:42.712Z,73.80
2019-03-18T08:21:03.097Z,72.60
2019-03-18T08:23:31.144Z,71.90
2019-03-18T08:26:01.897Z,71.60
2019-03-18T08:28:30.088Z,70.50
2019-03-18T08:30:58.143Z,71.50
2019-03-18T08:33:26.132Z,70.70
2019-03-18T08:35:55.109Z,70.70
2019-03-18T08:38:23.298Z,70.20
2019-03-18T08:40:51.534Z,67.00
2019-03-18T08:43:19.603Z,67.60
2019-03-18T08:45:47.539Z,67.70
2019-03-18T08:48:15.574Z,67.60
2019-03-18T08:50:43.510Z,68.70
2019-03-18T08:53:11.558Z,69.40
2019-03-18T08:55:39.502Z,66.40
2019-03-18T08:58:07.454Z,67.00
2019-03-18T09:00:35.944Z,67.30
2019-03-18T09:03:03.934Z,65.60
2019-03-18T09:05:31.970Z,64.00
2019-03-18T09:07:59.960Z,65.40
2019-03-18T09:10:27.934Z,65.20
2019-03-18T09:12:56.188Z,65.60
2019-03-18T09:15:24.894Z,63.90
2019-03-18T09:17:54.306Z,64.00
2019-03-18T09:20:22.242Z,64.60
2019-03-18T09:22:50.327Z,64.70
2019-03-18T09:25:18.552Z,64.90
2019-03-18T09:27:46.698Z,64.70
2019-03-18T09:30:16.289Z,63.60
2019-03-18T09:32:44.611Z,63.60
2019-03-18T09:35:12.592Z,63.70
2019-03-18T09:37:40.630Z,63.30
2019-03-18T09:40:08.675Z,63.30
2019-03-18T09:42:36.610Z,63.30
2019-03-18T09:45:05.081Z,62.20
2019-03-18T09:47:33.347Z,61.20
2019-03-18T09:50:02.189Z,60.30
2019-03-18T09:52:30.972Z,61.50
2019-03-18T09:54:58.915Z,62.80
2019-03-18T09:57:26.967Z,62.80
2019-03-18T09:59:54.963Z,63.00
2019-03-18T10:02:22.975Z,63.40
2019-03-18T10:04:51.570Z,64.30
2019-03-18T10:07:19.813Z,66.10
2019-03-18T10:09:47.927Z,67.00
2019-03-18T10:12:15.945Z,67.00
2019-03-18T10:14:44.063Z,65.80
2019-03-18T10:17:12.117Z,65.20
2019-03-18T10:19:40.158Z,64.20
2019-03-18T10:22:08.135Z,61.20
2019-03-18T10:24:36.508Z,59.80
2019-03-18T10:27:04.719Z,60.70
2019-03-18T10:29:32.947Z,57.10
2019-03-18T10:32:00.925Z,55.60
2019-03-18T10:34:29.038Z,57.20
2019-03-18T10:36:57.075Z,55.50
2019-03-18T10:39:25.164Z,55.40
2019-03-18T10:41:53.311Z,54.40
2019-03-18T10:44:22.004Z,52.10
2019-03-18T10:46:50.242Z,52.70
2019-03-18T10:49:18.481Z,51.90
2019-03-18T10:51:48.392Z,51.70
2019-03-18T10:54:17.109Z,52.40
2019-03-18T10:56:45.139Z,52.20
2019-03-18T10:59:13.226Z,51.40
2019-03-18T11:01:41.386Z,51.10
2019-03-18T11:04:09.465Z,50.80
2019-03-18T11:06:37.535Z,48.20
2019-03-18T11:09:07.099Z,48.10
2019-03-18T11:11:35.076Z,49.70
2019-03-18T11:14:03.042Z,49.70
2019-03-18T11:16:31.507Z,48.90
2019-03-18T11:18:59.763Z,48.00
2019-03-18T11:21:28.862Z,46.60
2019-03-18T11:23:57.666Z,48.00
2019-03-18T11:26:26.540Z,47.30
2019-03-18T11:28:54.568Z,48.50
2019-03-18T11:31:22.760Z,49.30
2019-03-18T11:33:51.068Z,49.20
2019-03-18T11:36:19.442Z,49.60
2019-03-18T11:38:47.409Z,50.20
2019-03-18T11:41:17.494Z,57.00
2019-03-18T11:43:45.364Z,63.50
2019-03-18T11:46:13.430Z,70.50
2019-03-18T11:48:41.362Z,76.40
2019-03-18T11:51:09.370Z,78.60
2019-03-18T11:53:37.345Z,78.00
2019-03-18T11:56:05.339Z,78.30
2019-03-18T11:58:33.408Z,80.70
2019-03-18T12:01:01.478Z,81.90
2019-03-18T12:03:30.492Z,83.80
2019-03-18T12:05:58.635Z,84.70
2019-03-18T12:08:26.776Z,86.70
2019-03-18T12:10:57.343Z,78.60
2019-03-18T12:13:25.310Z,76.10
2019-03-18T12:15:54.846Z,77.10
2019-03-18T12:18:22.857Z,76.30
2019-03-18T12:20:50.899Z,78.50
2019-03-18T12:23:19.143Z,76.80
2019-03-18T12:25:47.246Z,78.80
2019-03-18T12:28:19.346Z,76.60
2019-03-18T12:30:47.385Z,75.70
2019-03-18T12:33:15.385Z,74.90
2019-03-18T12:35:43.509Z,69.40
2019-03-18T12:38:11.648Z,67.40
2019-03-18T12:40:39.629Z,68.30
2019-03-18T12:43:07.730Z,70.00
2019-03-18T12:45:35.749Z,71.50
2019-03-18T12:48:03.755Z,68.90
2019-03-18T12:50:49.206Z,64.50
2019-03-18T12:53:01.659Z,65.70
2019-03-18T12:55:29.751Z,63.30
2019-03-18T12:57:57.724Z,63.20
2019-03-18T13:00:25.880Z,58.20
2019-03-18T13:02:54.313Z,58.80
2019-03-18T13:05:22.362Z,55.00
2019-03-18T13:07:52.589Z,59.70
2019-03-18T13:10:21.830Z,58.80
2019-03-18T13:12:51.343Z,54.20
2019-03-18T13:15:19.657Z,55.00
2019-03-18T13:17:48.302Z,49.60
2019-03-18T13:20:16.666Z,47.70
2019-03-18T13:22:44.855Z,44.80
2019-03-18T13:25:13.132Z,41.40
2019-03-18T13:27:41.260Z,43.30
2019-03-18T13:30:15.327Z,43.30
2019-03-18T13:32:42.910Z,47.10
2019-03-18T13:35:10.948Z,52.10
2019-03-18T13:37:38.962Z,55.10
2019-03-18T13:40:08.056Z,57.70
2019-03-18T13:42:36.174Z,56.90
2019-03-18T13:45:05.144Z,60.20
2019-03-18T13:47:33.117Z,59.30
2019-03-18T13:50:01.113Z,57.70
2019-03-18T13:52:29.090Z,56.30
2019-03-18T13:54:57.056Z,51.90
2019-03-18T13:57:25.096Z,48.10
2019-03-18T13:59:54.524Z,47.90
2019-03-18T14:02:22.495Z,44.80
2019-03-18T14:04:51.326Z,45.10
2019-03-18T14:07:22.316Z,45.40
2019-03-18T14:09:49.340Z,47.50
2019-03-18T14:12:17.330Z,48.00
2019-03-18T14:14:45.292Z,42.80
2019-03-18T14:17:13.350Z,44.30
2019-03-18T14:19:41.386Z,45.20
2019-03-18T14:22:09.362Z,43.60
2019-03-18T14:24:37.351Z,41.80
2019-03-18T14:27:05.322Z,38.80
2019-03-18T14:29:33.469Z,38.40
2019-03-18T14:32:01.502Z,37.80
2019-03-18T14:34:29.465Z,37.00
2019-03-18T14:36:59.269Z,34.40
2019-03-18T14:39:27.308Z,33.30
2019-03-18T14:41:59.536Z,31.20
2019-03-18T14:44:30.692Z,30.50
2019-03-18T14:46:58.747Z,28.40
2019-03-18T14:49:26.842Z,27.70
2019-03-18T14:51:54.775Z,26.70
2019-03-18T14:54:22.863Z,25.40
2019-03-18T14:56:51.228Z,25.30
2019-03-18T14:59:19.299Z,28.20
2019-03-18T15:01:47.576Z,28.80
2019-03-18T15:04:15.658Z,30.30
2019-03-18T15:06:43.639Z,30.00
2019-03-18T15:09:11.581Z,31.50
2019-03-18T15:11:39.588Z,32.00
2019-03-18T15:14:07.700Z,31.40
2019-03-18T15:16:35.861Z,30.00
2019-03-18T15:19:03.777Z,27.20
2019-03-18T15:21:31.675Z,25.80
2019-03-18T15:23:59.589Z,26.30
2019-03-18T15:26:27.948Z,27.30
2019-03-18T15:28:55.910Z,27.90
2019-03-18T15:31:23.982Z,29.20
2019-03-18T15:33:54.084Z,34.50
2019-03-18T15:36:21.986Z,39.60
2019-03-18T15:38:50.224Z,48.00
2019-03-18T15:41:18.498Z,46.70
2019-03-18T15:43:46.724Z,44.00
2019-03-18T15:46:14.875Z,44.40
2019-03-18T15:48:42.888Z,47.40
2019-03-18T15:51:10.872Z,49.60
2019-03-18T15:53:39.251Z,49.60
2019-03-18T15:56:07.391Z,47.70
2019-03-18T15:58:35.539Z,47.00
2019-03-18T16:01:03.473Z,45.90
2019-03-18T16:03:31.505Z,46.60
2019-03-18T16:05:59.587Z,45.70
2019-03-18T16:08:27.730Z,44.80
2019-03-18T16:10:55.776Z,44.90
2019-03-18T16:13:23.878Z,45.50
2019-03-18T16:15:52.013Z,45.00
2019-03-18T16:18:19.989Z,42.50
2019-03-18T16:20:47.948Z,42.80
2019-03-18T16:23:16.007Z,40.60
2019-03-18T16:25:44.077Z,40.30
2019-03-18T16:28:12.108Z,41.10
2019-03-18T16:30:40.288Z,40.90
2019-03-18T16:33:08.570Z,40.40
2019-03-18T16:35:36.715Z,39.30
2019-03-18T16:38:04.904Z,39.40
2019-03-18T16:40:35.303Z,39.40
2019-03-18T16:43:03.305Z,38.00
2019-03-18T16:45:33.060Z,38.10
2019-03-18T16:48:01.335Z,37.20
2019-03-18T16:50:29.445Z,37.10
2019-03-18T16:52:57.475Z,35.90
2019-03-18T16:55:25.532Z,34.80
2019-03-18T16:57:53.606Z,34.40
2019-03-18T17:00:21.749Z,34.10
2019-03-18T17:02:50.470Z,34.60
2019-03-18T17:05:18.623Z,35.70
2019-03-18T17:07:46.715Z,35.80
2019-03-18T17:10:14.884Z,36.70
2019-03-18T17:12:43.010Z,36.90
2019-03-18T17:15:11.152Z,37.60
2019-03-18T17:17:39.137Z,38.50
2019-03-18T17:20:09.548Z,38.30
2019-03-18T17:22:48.246Z,38.70
2019-03-18T17:25:10.761Z,39.00
2019-03-18T17:27:38.861Z,40.00
2019-03-18T17:30:11.403Z,41.00
2019-03-18T17:32:39.610Z,40.30
2019-03-18T17:35:07.743Z,41.10
2019-03-18T17:37:35.741Z,42.10
2019-03-18T17:40:04.941Z,42.00
2019-03-18T17:42:33.231Z,42.70
2019-03-18T17:45:02.463Z,43.50
2019-03-18T17:47:31.853Z,45.20
2019-03-18T17:50:00.382Z,45.50
2019-03-18T17:52:28.502Z,45.80
2019-03-18T17:54:57.321Z,46.40
2019-03-18T17:57:25.919Z,46.90
2019-03-18T17:59:54.331Z,47.10
2019-03-18T18:02:22.606Z,47.20
2019-03-18T18:05:02.484Z,47.80
2019-03-18T18:07:23.456Z,48.40
2019-03-18T18:09:51.751Z,48.40
2019-03-18T18:12:19.905Z,49.10
2019-03-18T18:14:48.143Z,49.40
2019-03-18T18:17:16.369Z,49.30
2019-03-18T18:19:46.388Z,49.70
2019-03-18T18:22:14.666Z,50.00
2019-03-18T18:24:43.033Z,50.70
2019-03-18T18:27:19.133Z,51.00
2019-03-18T18:29:47.553Z,51.30
2019-03-18T18:32:15.974Z,51.00
2019-03-18T18:34:44.187Z,50.40
2019-03-18T18:37:12.662Z,50.20
2019-03-18T18:39:40.753Z,50.90
2019-03-18T18:42:08.893Z,50.70
2019-03-18T18:44:37.571Z,50.70
2019-03-18T18:47:05.727Z,51.30
2019-03-18T18:49:33.795Z,50.90
2019-03-18T18:52:02.065Z,51.30
2019-03-18T18:54:30.257Z,51.80
2019-03-18T18:56:58.432Z,52.30
2019-03-18T18:59:26.702Z,53.10
2019-03-18T19:01:54.811Z,52.80
2019-03-18T19:04:22.941Z,52.70
2019-03-18T19:06:51.252Z,52.80
2019-03-18T19:09:19.686Z,53.00
2019-03-18T19:11:47.759Z,53.40
2019-03-18T19:14:15.965Z,53.60
2019-03-18T19:16:44.031Z,53.80
2019-03-18T19:19:12.054Z,54.70
2019-03-18T19:21:40.157Z,54.70
2019-03-18T19:24:08.213Z,55.30
2019-03-18T19:26:36.824Z,54.90
2019-03-18T19:29:05.066Z,55.00
2019-03-18T19:31:33.149Z,53.20
2019-03-18T19:34:01.295Z,52.80
2019-03-18T19:36:29.725Z,52.90
2019-03-18T19:38:58.107Z,51.80
2019-03-18T19:41:26.340Z,51.30
2019-03-18T19:43:54.578Z,51.20
2019-03-18T19:46:23.217Z,51.20
2019-03-18T19:48:51.521Z,50.90
2019-03-18T19:51:19.578Z,51.20
2019-03-18T19:53:49.444Z,51.30
2019-03-18T19:56:17.795Z,50.70
2019-03-18T19:58:45.980Z,50.20
2019-03-18T20:01:14.028Z,49.60
2019-03-18T20:03:42.214Z,50.00
2019-03-18T20:06:10.478Z,50.60
2019-03-18T20:08:38.949Z,50.90
2019-03-18T20:11:07.118Z,51.00
2019-03-18T20:13:35.538Z,50.80
2019-03-18T20:16:03.585Z,50.40
2019-03-18T20:18:31.825Z,51.30
2019-03-18T20:20:59.940Z,50.00
2019-03-18T20:23:28.102Z,50.10
2019-03-18T20:25:56.292Z,50.10
2019-03-18T20:28:24.750Z,50.70
2019-03-18T20:30:52.930Z,50.10
2019-03-18T20:33:21.146Z,50.30
2019-03-18T20:35:49.791Z,50.90
2019-03-18T20:38:18.011Z,51.50
2019-03-18T20:40:46.280Z,51.30
2019-03-18T20:43:14.799Z,51.50
2019-03-18T20:45:43.325Z,51.30
2019-03-18T20:48:11.444Z,51.60
2019-03-18T20:50:39.678Z,51.80
2019-03-18T20:53:08.001Z,51.80
2019-03-18T20:55:36.249Z,51.70
2019-03-18T20:58:04.898Z,51.80
2019-03-18T21:00:33.296Z,51.80
2019-03-18T21:03:02.373Z,51.80
2019-03-18T21:05:30.547Z,52.10
2019-03-18T21:07:58.695Z,52.60
2019-03-18T21:10:26.855Z,53.50
2019-03-18T21:12:55.871Z,53.60
2019-03-18T21:15:24.181Z,53.80
2019-03-18T21:17:52.530Z,53.50
2019-03-18T21:20:22.781Z,54.00
2019-03-18T21:22:51.913Z,54.40
2019-03-18T21:25:20.141Z,55.00
2019-03-18T21:27:48.315Z,55.20
2019-03-18T21:30:16.642Z,55.40
2019-03-18T21:32:45.923Z,55.30
2019-03-18T21:35:14.716Z,55.40
2019-03-18T21:37:42.900Z,55.60
2019-03-18T21:40:12.132Z,56.40
2019-03-18T21:42:42.095Z,57.00
2019-03-18T21:45:13.294Z,57.80
2019-03-18T21:47:41.579Z,58.60
2019-03-18T21:50:09.969Z,58.60
2019-03-18T21:52:38.004Z,58.00
2019-03-18T21:55:06.171Z,57.50
2019-03-18T21:57:34.375Z,57.00
2019-03-18T22:00:03.043Z,57.00
2019-03-18T22:02:32.154Z,56.20
2019-03-18T22:05:00.323Z,56.20
2019-03-18T22:07:28.451Z,55.70
2019-03-18T22:09:56.885Z,55.40
2019-03-18T22:12:24.995Z,55.20
2019-03-18T22:14:53.171Z,54.70
2019-03-18T22:17:21.352Z,54.90
2019-03-18T22:19:49.399Z,55.20
2019-03-18T22:22:17.429Z,55.50
2019-03-18T22:24:45.923Z,55.80
2019-03-18T22:27:14.207Z,56.20
2019-03-18T22:29:42.477Z,56.30
2019-03-18T22:32:10.636Z,56.50
2019-03-18T22:34:38.708Z,56.60
2019-03-18T22:37:06.787Z,57.10
2019-03-18T22:39:34.779Z,57.30
2019-03-18T22:42:02.905Z,57.10
2019-03-18T22:44:33.888Z,57.70
2019-03-18T22:47:01.949Z,58.50
2019-03-18T22:49:29.898Z,59.30
2019-03-18T22:51:57.865Z,59.70
2019-03-18T22:54:26.039Z,60.60
2019-03-18T22:56:54.007Z,60.50
2019-03-18T22:59:24.971Z,61.30
2019-03-18T23:01:53.238Z,61.30
2019-03-18T23:04:22.746Z,63.30
2019-03-18T23:06:50.815Z,65.30
2019-03-18T23:09:18.801Z,66.20
2019-03-18T23:11:46.934Z,66.60
2019-03-18T23:14:14.952Z,68.40
2019-03-18T23:16:43.285Z,69.50
2019-03-18T23:19:11.365Z,69.60
2019-03-18T23:21:39.382Z,73.40
2019-03-18T23:24:07.310Z,74.60
2019-03-18T23:26:35.354Z,74.30
2019-03-18T23:29:03.658Z,74.10
2019-03-18T23:31:31.724Z,75.10
2019-03-18T23:33:59.860Z,75.50
2019-03-18T23:36:27.961Z,77.00
2019-03-18T23:38:55.868Z,77.00
2019-03-18T23:41:23.790Z,76.90
2019-03-18T23:43:51.787Z,76.60
2019-03-18T23:46:19.870Z,76.30
2019-03-18T23:48:47.881Z,75.90
2019-03-18T23:51:15.780Z,76.70
2019-03-18T23:53:43.714Z,77.30
2019-03-18T23:56:11.709Z,78.00
2019-03-18T23:58:39.623Z,78.50
